createdAt,value
2023-09-17T00:00:19.361Z,16.50
2023-09-17T00:02:57.412Z,16.50
2023-09-17T00:05:25.875Z,16.50
2023-09-17T00:07:56.008Z,16.40
2023-09-17T00:10:27.467Z,16.40
2023-09-17T00:12:56.621Z,16.30
2023-09-17T00:15:26.504Z,16.30
2023-09-17T00:17:58.168Z,16.20
2023-09-17T00:20:26.238Z,16.20
2023-09-17T00:22:54.132Z,16.10
2023-09-17T00:25:22.317Z,16.10
2023-09-17T00:27:50.419Z,16.10
2023-09-17T00:30:18.711Z,16.00
2023-09-17T00:32:47.278Z,16.00
2023-09-17T00:35:18.853Z,16.00
2023-09-17T00:37:52.163Z,15.90
2023-09-17T00:40:27.169Z,15.90
2023-09-17T00:42:55.057Z,15.90
2023-09-17T00:45:24.073Z,15.80
2023-09-17T00:47:52.334Z,15.80
2023-09-17T00:50:23.333Z,15.70
2023-09-17T00:52:52.562Z,15.70
2023-09-17T00:55:21.199Z,15.60
2023-09-17T00:57:49.420Z,15.60
2023-09-17T01:00:22.184Z,15.60
2023-09-17T01:02:50.833Z,15.70
2023-09-17T01:05:19.277Z,15.70
2023-09-17T01:07:52.333Z,15.70
2023-09-17T01:10:20.890Z,15.70
2023-09-17T01:12:52.728Z,15.70
2023-09-17T01:15:22.399Z,15.70
2023-09-17T01:17:51.844Z,15.70
2023-09-17T01:20:34.787Z,15.70
2023-09-17T01:23:11.669Z,15.70
2023-09-17T01:25:48.210Z,15.70
2023-09-17T01:28:20.281Z,15.70
2023-09-17T01:30:48.374Z,15.60
2023-09-17T01:33:16.505Z,15.60
2023-09-17T01:35:55.867Z,15.50
2023-09-17T01:38:33.871Z,15.50
2023-09-17T01:41:04.002Z,15.50
2023-09-17T01:43:34.531Z,15.40
2023-09-17T01:46:06.778Z,15.40
2023-09-17T01:48:35.187Z,15.20
2023-09-17T01:51:03.833Z,15.20
2023-09-17T01:53:33.597Z,15.10
2023-09-17T01:56:09.259Z,15.00
2023-09-17T01:58:40.201Z,15.00
2023-09-17T02:01:10.698Z,15.00
2023-09-17T02:03:39.971Z,15.00
2023-09-17T02:06:08.239Z,14.90
2023-09-17T02:08:38.322Z,15.00
2023-09-17T02:11:07.569Z,15.00
2023-09-17T02:13:35.540Z,14.90
2023-09-17T02:16:08.676Z,14.90
2023-09-17T02:18:39.064Z,14.90
2023-09-17T02:21:08.456Z,14.80
2023-09-17T02:23:37.608Z,14.80
2023-09-17T02:26:06.339Z,14.80
2023-09-17T02:28:35.031Z,14.80
2023-09-17T02:31:05.038Z,14.90
2023-09-17T02:33:33.900Z,14.90
2023-09-17T02:36:04.738Z,14.90
2023-09-17T02:38:32.599Z,15.00
2023-09-17T02:41:00.702Z,14.90
2023-09-17T02:43:30.618Z,14.90
2023-09-17T02:45:59.587Z,14.80
2023-09-17T02:48:30.061Z,14.70
2023-09-17T02:50:58.221Z,14.70
2023-09-17T02:53:26.165Z,14.80
2023-09-17T02:55:54.927Z,14.70
2023-09-17T02:58:24.232Z,14.70
2023-09-17T03:00:52.534Z,14.70
2023-09-17T03:03:20.963Z,14.70
2023-09-17T03:05:50.618Z,14.70
2023-09-17T03:08:21.070Z,14.70
2023-09-17T03:10:59.292Z,14.60
2023-09-17T03:13:27.669Z,14.60
2023-09-17T03:15:59.736Z,14.60
2023-09-17T03:18:28.051Z,14.50
2023-09-17T03:20:57.266Z,14.50
2023-09-17T03:23:25.404Z,14.50
2023-09-17T03:25:53.361Z,14.50
2023-09-17T03:28:21.655Z,14.50
2023-09-17T03:30:49.625Z,14.50
2023-09-17T03:33:25.428Z,14.50
2023-09-17T03:35:53.891Z,14.50
2023-09-17T03:38:23.587Z,14.50
2023-09-17T03:40:52.204Z,14.40
2023-09-17T03:43:20.672Z,14.40
2023-09-17T03:45:49.591Z,14.40
2023-09-17T03:48:19.275Z,14.40
2023-09-17T03:50:48.024Z,14.40
2023-09-17T03:53:16.875Z,14.40
2023-09-17T03:55:47.415Z,14.30
2023-09-17T03:58:15.362Z,14.30
2023-09-17T04:00:44.806Z,14.30
2023-09-17T04:03:15.865Z,14.30
2023-09-17T04:05:44.461Z,14.30
2023-09-17T04:08:13.601Z,14.20
2023-09-17T04:10:41.772Z,14.30
2023-09-17T04:13:14.234Z,14.20
2023-09-17T04:15:43.236Z,14.20
2023-09-17T04:18:11.607Z,14.20
2023-09-17T04:20:42.744Z,14.20
2023-09-17T04:23:12.013Z,14.20
2023-09-17T04:25:40.477Z,14.20
2023-09-17T04:28:10.217Z,14.10
2023-09-17T04:30:39.895Z,14.10
2023-09-17T04:33:08.858Z,14.10
2023-09-17T04:35:36.879Z,14.10
2023-09-17T04:38:05.349Z,14.10
2023-09-17T04:40:33.890Z,14.10
2023-09-17T04:43:02.612Z,14.10
2023-09-17T04:45:37.522Z,14.10
2023-09-17T04:48:09.466Z,14.20
2023-09-17T04:50:38.162Z,14.20
2023-09-17T04:53:11.235Z,14.20
2023-09-17T04:55:42.276Z,14.20
2023-09-17T04:58:10.141Z,14.20
2023-09-17T05:00:39.456Z,14.30
2023-09-17T05:03:09.837Z,14.40
2023-09-17T05:05:38.470Z,14.40
2023-09-17T05:08:07.143Z,14.40
2023-09-17T05:10:35.790Z,14.50
2023-09-17T05:13:03.638Z,14.50
2023-09-17T05:15:32.864Z,14.60
2023-09-17T05:18:10.712Z,14.60
2023-09-17T05:20:42.974Z,14.70
2023-09-17T05:23:14.413Z,14.80
2023-09-17T05:25:43.313Z,14.80
2023-09-17T05:28:11.524Z,14.90
2023-09-17T05:30:39.924Z,15.00
2023-09-17T05:33:09.766Z,15.10
2023-09-17T05:35:39.392Z,15.20
2023-09-17T05:38:09.359Z,15.30
2023-09-17T05:40:37.388Z,15.40
2023-09-17T05:43:08.861Z,15.60
2023-09-17T05:45:37.228Z,15.70
2023-09-17T05:48:07.564Z,15.80
2023-09-17T05:50:36.923Z,15.70
2023-09-17T05:53:05.371Z,15.80
2023-09-17T05:55:33.604Z,15.90
2023-09-17T05:58:01.847Z,15.90
2023-09-17T06:00:30.289Z,15.90
2023-09-17T06:02:58.533Z,16.10
2023-09-17T06:05:26.647Z,16.10
2023-09-17T06:07:56.859Z,16.10
2023-09-17T06:10:24.896Z,16.10
2023-09-17T06:12:54.879Z,16.10
2023-09-17T06:15:23.087Z,16.20
2023-09-17T06:17:52.354Z,16.30
2023-09-17T06:20:21.138Z,16.40
2023-09-17T06:22:50.117Z,16.30
2023-09-17T06:25:20.389Z,16.30
2023-09-17T06:27:48.767Z,16.30
2023-09-17T06:30:17.466Z,16.40
2023-09-17T06:32:46.672Z,16.60
2023-09-17T06:35:14.894Z,16.60
2023-09-17T06:37:43.209Z,16.70
2023-09-17T06:40:15.141Z,16.90
2023-09-17T06:42:44.389Z,17.00
2023-09-17T06:45:13.127Z,17.10
2023-09-17T06:47:41.304Z,17.30
2023-09-17T06:50:10.611Z,17.50
2023-09-17T06:52:38.586Z,17.80
2023-09-17T06:55:06.870Z,17.90
2023-09-17T06:57:35.032Z,18.00
2023-09-17T07:00:07.136Z,18.10
2023-09-17T07:02:35.272Z,18.30
2023-09-17T07:05:05.777Z,18.40
2023-09-17T07:07:33.930Z,18.60
2023-09-17T07:10:01.999Z,18.70
2023-09-17T07:12:29.991Z,18.90
2023-09-17T07:14:57.948Z,19.00
2023-09-17T07:17:27.757Z,19.20
2023-09-17T07:19:57.636Z,19.30
2023-09-17T07:22:25.587Z,19.30
2023-09-17T07:24:59.745Z,19.40
2023-09-17T07:27:28.663Z,19.50
2023-09-17T07:29:59.823Z,19.60
2023-09-17T07:32:30.506Z,19.80
2023-09-17T07:34:59.163Z,20.00
2023-09-17T07:37:36.969Z,20.20
2023-09-17T07:40:18.403Z,20.30
2023-09-17T07:42:46.997Z,20.60
2023-09-17T07:45:15.592Z,20.70
2023-09-17T07:47:48.070Z,20.80
2023-09-17T07:50:16.983Z,21.10
2023-09-17T07:52:45.238Z,21.30
2023-09-17T07:55:13.152Z,21.40
2023-09-17T07:57:41.049Z,21.50
2023-09-17T08:00:13.493Z,21.60
2023-09-17T08:02:41.680Z,21.80
2023-09-17T08:05:11.756Z,21.80
2023-09-17T08:07:41.442Z,21.80
2023-09-17T08:10:10.825Z,21.90
2023-09-17T08:12:39.609Z,21.80
2023-09-17T08:15:08.872Z,21.80
2023-09-17T08:17:37.867Z,21.80
2023-09-17T08:20:10.626Z,21.80
2023-09-17T08:22:40.193Z,21.70
2023-09-17T08:25:14.085Z,21.60
2023-09-17T08:27:44.925Z,21.70
2023-09-17T08:30:13.841Z,21.50
2023-09-17T08:32:44.882Z,21.30
2023-09-17T08:35:16.356Z,21.20
2023-09-17T08:37:46.261Z,21.30
2023-09-17T08:40:19.139Z,21.20
2023-09-17T08:42:51.580Z,21.20
2023-09-17T08:45:21.460Z,21.30
2023-09-17T08:47:50.932Z,21.20
2023-09-17T08:50:19.514Z,21.10
2023-09-17T08:52:56.602Z,21.00
2023-09-17T08:55:25.200Z,21.20
2023-09-17T08:58:00.300Z,20.80
2023-09-17T09:00:33.402Z,21.00
2023-09-17T09:03:02.747Z,21.10
2023-09-17T09:05:36.930Z,21.30
2023-09-17T09:08:07.877Z,21.50
2023-09-17T09:10:38.886Z,21.50
2023-09-17T09:13:09.434Z,21.60
2023-09-17T09:15:37.817Z,21.60
2023-09-17T09:18:06.403Z,21.70
2023-09-17T09:20:34.629Z,21.70
2023-09-17T09:23:02.921Z,21.90
2023-09-17T09:25:33.840Z,22.10
2023-09-17T09:28:02.296Z,22.20
2023-09-17T09:30:30.755Z,22.30
2023-09-17T09:32:59.224Z,22.30
2023-09-17T09:35:29.084Z,22.40
2023-09-17T09:37:58.866Z,22.40
2023-09-17T09:40:27.608Z,22.40
2023-09-17T09:43:00.613Z,22.50
2023-09-17T09:45:30.098Z,22.50
2023-09-17T09:47:58.660Z,22.70
2023-09-17T09:50:31.015Z,22.90
2023-09-17T09:53:02.793Z,23.00
2023-09-17T09:55:31.885Z,23.10
2023-09-17T09:58:01.815Z,23.30
2023-09-17T10:00:30.895Z,23.40
2023-09-17T10:03:03.392Z,23.50
2023-09-17T10:05:38.272Z,23.50
2023-09-17T10:08:07.204Z,23.50
2023-09-17T10:10:35.311Z,23.50
2023-09-17T10:13:08.035Z,23.70
2023-09-17T10:15:37.782Z,24.10
2023-09-17T10:18:06.636Z,24.20
2023-09-17T10:20:38.118Z,24.40
2023-09-17T10:23:07.074Z,24.40
2023-09-17T10:25:39.929Z,24.40
2023-09-17T10:28:12.785Z,24.60
2023-09-17T10:30:45.741Z,24.80
2023-09-17T10:33:16.736Z,25.00
2023-09-17T10:35:45.976Z,25.20
2023-09-17T10:38:16.483Z,25.40
2023-09-17T10:40:45.396Z,25.60
2023-09-17T10:43:16.715Z,25.70
2023-09-17T10:45:46.604Z,25.90
2023-09-17T10:48:16.285Z,26.10
2023-09-17T10:50:44.895Z,26.30
2023-09-17T10:53:12.834Z,26.40
2023-09-17T10:55:47.017Z,26.60
2023-09-17T10:58:20.374Z,26.70
2023-09-17T11:00:50.392Z,27.00
2023-09-17T11:03:24.637Z,27.10
2023-09-17T11:05:55.461Z,27.50
2023-09-17T11:08:24.484Z,27.70
2023-09-17T11:10:52.582Z,28.00
2023-09-17T11:13:24.906Z,27.60
2023-09-17T11:15:57.582Z,27.40
2023-09-17T11:18:25.935Z,27.30
2023-09-17T11:21:06.151Z,27.20
2023-09-17T11:23:46.598Z,27.10
2023-09-17T11:26:16.524Z,27.30
2023-09-17T11:28:45.935Z,27.40
2023-09-17T11:31:16.531Z,27.50
2023-09-17T11:33:45.576Z,27.50
2023-09-17T11:36:14.001Z,27.40
2023-09-17T11:38:48.166Z,27.30
2023-09-17T11:41:18.544Z,27.30
2023-09-17T11:43:53.112Z,27.30
2023-09-17T11:46:22.942Z,27.40
2023-09-17T11:48:51.124Z,27.40
2023-09-17T11:51:23.763Z,27.50
2023-09-17T11:54:06.187Z,27.30
2023-09-17T11:56:36.098Z,27.50
2023-09-17T11:59:09.816Z,27.80
2023-09-17T12:01:39.612Z,28.10
2023-09-17T12:04:10.088Z,28.50
2023-09-17T12:06:41.077Z,28.90
2023-09-17T12:09:17.096Z,29.60
2023-09-17T12:11:48.358Z,30.00
2023-09-17T12:14:20.234Z,30.00
2023-09-17T12:16:50.292Z,30.10
2023-09-17T12:19:20.107Z,30.50
2023-09-17T12:21:49.276Z,30.40
2023-09-17T12:24:22.526Z,30.40
2023-09-17T12:27:08.346Z,30.70
2023-09-17T12:29:38.604Z,31.30
2023-09-17T12:32:08.828Z,31.50
2023-09-17T12:34:38.860Z,31.60
2023-09-17T12:37:08.303Z,31.60
2023-09-17T12:39:38.355Z,31.10
2023-09-17T12:42:07.718Z,30.80
2023-09-17T12:44:39.061Z,30.30
2023-09-17T12:47:07.525Z,29.70
2023-09-17T12:49:39.461Z,29.70
2023-09-17T12:52:07.823Z,30.10
2023-09-17T12:54:36.239Z,30.50
2023-09-17T12:57:04.676Z,31.70
2023-09-17T12:59:39.076Z,32.70
2023-09-17T13:02:11.989Z,33.40
2023-09-17T13:04:42.373Z,34.00
2023-09-17T13:07:19.889Z,34.40
2023-09-17T13:09:50.894Z,34.50
2023-09-17T13:12:21.379Z,34.60
2023-09-17T13:14:53.085Z,34.60
2023-09-17T13:17:24.381Z,34.90
2023-09-17T13:19:54.105Z,35.20
2023-09-17T13:22:22.791Z,35.50
2023-09-17T13:24:52.951Z,35.80
2023-09-17T13:27:21.658Z,35.70
2023-09-17T13:29:50.557Z,35.90
2023-09-17T13:32:22.096Z,36.50
2023-09-17T13:34:51.759Z,36.60
2023-09-17T13:37:20.644Z,36.90
2023-09-17T13:39:51.332Z,36.80
2023-09-17T13:42:19.618Z,36.90
2023-09-17T13:44:49.686Z,37.00
2023-09-17T13:47:17.551Z,37.20
2023-09-17T13:49:49.490Z,37.00
2023-09-17T13:52:18.977Z,36.40
2023-09-17T13:54:47.519Z,36.60
2023-09-17T13:57:19.379Z,36.80
2023-09-17T13:59:47.704Z,36.90
2023-09-17T14:02:17.609Z,37.00
2023-09-17T14:04:46.538Z,37.10
2023-09-17T14:07:14.782Z,37.00
2023-09-17T14:09:44.119Z,37.60
2023-09-17T14:12:12.231Z,37.50
2023-09-17T14:14:40.074Z,37.60
2023-09-17T14:17:08.045Z,37.70
2023-09-17T14:19:38.144Z,38.40
2023-09-17T14:22:07.198Z,38.00
2023-09-17T14:24:40.175Z,38.70
2023-09-17T14:27:10.141Z,39.30
2023-09-17T14:29:38.928Z,39.90
2023-09-17T14:32:07.433Z,40.30
2023-09-17T14:34:35.412Z,39.20
2023-09-17T14:37:03.503Z,39.00
2023-09-17T14:39:31.309Z,38.50
2023-09-17T14:41:59.767Z,38.90
2023-09-17T14:44:33.171Z,38.90
2023-09-17T14:47:01.678Z,38.80
2023-09-17T14:49:33.366Z,38.70
2023-09-17T14:52:01.566Z,38.60
2023-09-17T14:54:30.645Z,37.40
2023-09-17T14:56:58.637Z,34.90
2023-09-17T14:59:28.804Z,33.60
2023-09-17T15:02:01.879Z,32.70
2023-09-17T15:04:33.197Z,31.80
2023-09-17T15:07:01.807Z,31.40
2023-09-17T15:09:31.242Z,31.10
2023-09-17T15:11:59.095Z,30.80
2023-09-17T15:14:31.766Z,30.60
2023-09-17T15:17:00.220Z,30.70
2023-09-17T15:19:42.460Z,30.50
2023-09-17T15:22:10.879Z,30.30
2023-09-17T15:24:38.880Z,30.20
2023-09-17T15:27:06.871Z,30.20
2023-09-17T15:29:38.119Z,30.00
2023-09-17T15:32:07.830Z,30.20
2023-09-17T15:34:41.768Z,30.60
2023-09-17T15:37:11.662Z,30.40
2023-09-17T15:39:39.995Z,30.10
2023-09-17T15:42:08.042Z,29.70
2023-09-17T15:44:38.989Z,29.40
2023-09-17T15:47:07.684Z,29.20
2023-09-17T15:49:35.919Z,29.30
2023-09-17T15:52:05.970Z,29.20
2023-09-17T15:54:36.561Z,29.10
2023-09-17T15:57:07.206Z,29.20
2023-09-17T15:59:35.415Z,30.50
2023-09-17T16:02:05.360Z,32.80
2023-09-17T16:04:36.670Z,33.60
2023-09-17T16:07:06.826Z,33.60
2023-09-17T16:09:35.268Z,32.60
2023-09-17T16:12:03.072Z,32.90
2023-09-17T16:14:31.585Z,33.20
2023-09-17T16:17:01.179Z,33.60
2023-09-17T16:19:31.514Z,33.00
2023-09-17T16:21:59.451Z,31.70
2023-09-17T16:24:29.844Z,30.60
2023-09-17T16:26:59.066Z,30.20
2023-09-17T16:29:27.702Z,30.00
2023-09-17T16:31:55.553Z,29.90
2023-09-17T16:34:25.208Z,29.50
2023-09-17T16:36:54.835Z,29.00
2023-09-17T16:39:25.163Z,28.60
2023-09-17T16:41:53.080Z,28.40
2023-09-17T16:44:21.170Z,28.00
2023-09-17T16:46:49.805Z,27.70
2023-09-17T16:49:18.080Z,27.60
2023-09-17T16:51:48.207Z,27.40
2023-09-17T16:54:22.363Z,27.20
2023-09-17T16:56:54.013Z,26.90
2023-09-17T16:59:22.564Z,26.70
2023-09-17T17:01:52.568Z,26.50
2023-09-17T17:04:21.405Z,26.30
2023-09-17T17:06:52.404Z,26.20
2023-09-17T17:09:21.677Z,25.90
2023-09-17T17:11:53.558Z,25.80
2023-09-17T17:14:21.782Z,25.70
2023-09-17T17:16:53.544Z,25.50
2023-09-17T17:19:23.004Z,25.40
2023-09-17T17:21:53.988Z,25.20
2023-09-17T17:24:24.885Z,25.10
2023-09-17T17:26:52.723Z,24.90
2023-09-17T17:29:22.546Z,24.80
2023-09-17T17:31:50.439Z,24.70
2023-09-17T17:34:18.786Z,24.60
2023-09-17T17:36:47.730Z,24.50
2023-09-17T17:39:16.188Z,24.40
2023-09-17T17:41:46.230Z,24.30
2023-09-17T17:44:14.590Z,24.20
2023-09-17T17:46:42.500Z,24.10
2023-09-17T17:49:10.500Z,24.10
2023-09-17T17:51:39.610Z,24.00
2023-09-17T17:54:08.342Z,23.90
2023-09-17T17:56:36.606Z,23.80
2023-09-17T17:59:07.429Z,23.70
2023-09-17T18:01:35.860Z,23.70
2023-09-17T18:04:04.397Z,23.60
2023-09-17T18:06:32.435Z,23.50
2023-09-17T18:09:00.509Z,23.50
2023-09-17T18:11:28.590Z,23.40
2023-09-17T18:13:57.326Z,23.40
2023-09-17T18:16:26.629Z,23.30
2023-09-17T18:18:54.579Z,23.30
2023-09-17T18:21:23.199Z,23.30
2023-09-17T18:23:51.261Z,23.20
2023-09-17T18:26:19.481Z,23.20
2023-09-17T18:28:47.377Z,23.20
2023-09-17T18:31:15.621Z,23.10
2023-09-17T18:33:47.850Z,23.10
2023-09-17T18:36:15.749Z,23.10
2023-09-17T18:38:45.276Z,23.10
2023-09-17T18:41:14.573Z,23.00
2023-09-17T18:43:42.665Z,23.10
2023-09-17T18:46:10.609Z,23.00
2023-09-17T18:48:44.934Z,23.00
2023-09-17T18:51:13.655Z,22.90
2023-09-17T18:53:43.428Z,22.90
2023-09-17T18:56:11.287Z,22.80
2023-09-17T18:58:39.581Z,22.80
2023-09-17T19:01:07.410Z,22.80
2023-09-17T19:03:36.183Z,22.70
2023-09-17T19:06:07.455Z,22.70
2023-09-17T19:08:35.760Z,22.70
2023-09-17T19:11:05.741Z,22.60
2023-09-17T19:13:35.756Z,22.60
2023-09-17T19:16:04.127Z,22.60
2023-09-17T19:18:32.500Z,22.50
2023-09-17T19:21:13.593Z,22.50
2023-09-17T19:23:42.463Z,22.50
2023-09-17T19:26:11.763Z,22.40
2023-09-17T19:28:39.972Z,22.40
2023-09-17T19:31:10.791Z,22.30
2023-09-17T19:33:40.277Z,22.40
2023-09-17T19:36:09.266Z,22.30
2023-09-17T19:38:38.474Z,22.20
2023-09-17T19:41:07.664Z,22.20
2023-09-17T19:43:38.580Z,22.10
2023-09-17T19:46:06.613Z,22.10
2023-09-17T19:48:34.627Z,22.10
2023-09-17T19:51:02.816Z,22.10
2023-09-17T19:53:34.276Z,22.00
2023-09-17T19:56:03.483Z,21.90
2023-09-17T19:58:32.138Z,21.80
2023-09-17T20:01:02.463Z,21.70
2023-09-17T20:03:31.914Z,21.70
2023-09-17T20:06:01.297Z,21.60
2023-09-17T20:08:29.773Z,21.60
2023-09-17T20:10:58.279Z,21.60
2023-09-17T20:13:27.841Z,21.50
2023-09-17T20:15:55.724Z,21.60
2023-09-17T20:18:24.007Z,21.50
2023-09-17T20:20:52.205Z,21.40
2023-09-17T20:23:21.694Z,21.50
2023-09-17T20:25:50.048Z,21.50
2023-09-17T20:28:19.266Z,21.50
2023-09-17T20:30:52.481Z,21.40
2023-09-17T20:33:22.033Z,21.40
2023-09-17T20:35:51.345Z,21.30
2023-09-17T20:38:19.789Z,21.30
2023-09-17T20:40:47.960Z,21.30
2023-09-17T20:43:23.196Z,21.20
2023-09-17T20:45:54.498Z,21.20
2023-09-17T20:48:22.741Z,21.10
2023-09-17T20:50:54.064Z,21.20
2023-09-17T20:53:22.236Z,21.20
2023-09-17T20:55:50.478Z,21.20
2023-09-17T20:58:18.400Z,21.20
2023-09-17T21:00:46.822Z,21.20
2023-09-17T21:03:17.195Z,21.20
2023-09-17T21:05:49.896Z,21.10
2023-09-17T21:08:18.344Z,21.10
2023-09-17T21:10:46.184Z,21.10
2023-09-17T21:13:15.804Z,21.10
2023-09-17T21:15:44.199Z,21.00
2023-09-17T21:18:14.078Z,21.10
2023-09-17T21:20:45.631Z,21.00
2023-09-17T21:23:14.877Z,21.00
2023-09-17T21:25:43.434Z,20.90
2023-09-17T21:28:14.009Z,20.90
2023-09-17T21:30:44.388Z,20.80
2023-09-17T21:33:14.839Z,20.80
2023-09-17T21:35:44.669Z,20.80
2023-09-17T21:38:13.811Z,20.70
2023-09-17T21:40:42.447Z,20.70
2023-09-17T21:43:10.647Z,20.70
2023-09-17T21:45:38.830Z,20.70
2023-09-17T21:48:07.129Z,20.60
2023-09-17T21:50:35.197Z,20.60
2023-09-17T21:53:05.013Z,20.60
2023-09-17T21:55:33.711Z,20.60
2023-09-17T21:58:01.610Z,20.50
2023-09-17T22:00:30.855Z,20.50
2023-09-17T22:03:00.703Z,20.50
2023-09-17T22:05:29.486Z,20.60
2023-09-17T22:07:57.480Z,20.50
2023-09-17T22:10:26.628Z,20.60
2023-09-17T22:12:54.490Z,20.60
2023-09-17T22:15:22.460Z,20.50
2023-09-17T22:17:53.401Z,20.50
2023-09-17T22:20:22.319Z,20.40
2023-09-17T22:22:50.636Z,20.40
2023-09-17T22:25:18.954Z,20.40
2023-09-17T22:27:48.634Z,20.40
2023-09-17T22:30:17.421Z,20.40
2023-09-17T22:32:45.866Z,20.40
2023-09-17T22:35:13.787Z,20.30
2023-09-17T22:37:41.948Z,20.30
2023-09-17T22:40:11.472Z,20.20
2023-09-17T22:42:39.602Z,20.20
2023-09-17T22:45:11.417Z,20.10
2023-09-17T22:47:39.892Z,20.10
2023-09-17T22:50:12.454Z,20.00
2023-09-17T22:52:43.263Z,20.00
2023-09-17T22:55:12.217Z,19.90
2023-09-17T22:57:40.397Z,19.90
2023-09-17T23:00:15.229Z,19.90
2023-09-17T23:02:43.462Z,19.90
2023-09-17T23:05:15.894Z,19.90
2023-09-17T23:07:44.142Z,19.90
2023-09-17T23:10:12.281Z,19.90
2023-09-17T23:12:42.185Z,19.90
2023-09-17T23:15:12.898Z,19.80
2023-09-17T23:17:41.554Z,19.70
2023-09-17T23:20:14.852Z,19.70
2023-09-17T23:22:43.057Z,19.60
2023-09-17T23:25:13.532Z,19.60
2023-09-17T23:27:42.585Z,19.70
2023-09-17T23:30:17.311Z,19.60
2023-09-17T23:32:46.701Z,19.60
2023-09-17T23:35:14.646Z,19.50
2023-09-17T23:37:43.706Z,19.50
2023-09-17T23:40:12.413Z,19.50
2023-09-17T23:42:40.803Z,19.50
2023-09-17T23:45:14.227Z,19.40
2023-09-17T23:47:43.701Z,19.30
2023-09-17T23:50:13.055Z,19.30
2023-09-17T23:52:41.858Z,19.30
2023-09-17T23:55:10.474Z,19.30
2023-09-17T23:57:38.764Z,19.30
